Atqasuk Edward Burnell Sr Memorial Airport


Codes: PATQ/ATK
Name: Atqasuk Edward Burnell Sr Memorial Airport
City: Atqasuk
Country: United States
Elevation: 96 ft.
Wikipedia:

Photos at Atqasuk Edward Burnell Sr Memorial Airport


   Photos courtesy of SpottingLog. You can add your own sightings and photos by signing up for a free trial today.



No photos found.

Weather at Atqasuk Edward Burnell Sr Memorial Airport


Time (UTC)DescriptionTempratureWindCloud coverageVisibilityPressureHumidity
15-Apr-2024 18:00Overcast Clouds-5°C20 mph, S100%10000m1011hPa87%
15-Apr-2024 21:00Overcast Clouds-3°C22 mph, SW100%10000m1011hPa80%
16-Apr-2024 00:00Overcast Clouds-2°C22 mph, SW100%10000m1011hPa74%
16-Apr-2024 03:00Overcast Clouds-2°C18 mph, SW100%10000m1011hPa77%
16-Apr-2024 06:00Overcast Clouds-3°C13 mph, S100%10000m1011hPa83%
16-Apr-2024 09:00Overcast Clouds-4°C11 mph, S99%10000m1011hPa93%
16-Apr-2024 12:00Light Snow-4°C13 mph, SE99%9809m1009hPa90%
16-Apr-2024 15:00Overcast Clouds-4°C11 mph, SE100%10000m1008hPa84%
16-Apr-2024 18:00Overcast Clouds-2°C13 mph, S100%10000m1008hPa83%
16-Apr-2024 21:00Overcast Clouds-1°C16 mph, S100%10000m1009hPa81%
17-Apr-2024 00:00Overcast Clouds2°C20 mph, SW100%10000m1011hPa77%
17-Apr-2024 03:00Overcast Clouds1°C25 mph, SW86%10000m1014hPa79%
17-Apr-2024 06:00Broken Clouds-9°C13 mph, W63%10000m1021hPa92%
17-Apr-2024 09:00Overcast Clouds-14°C7 mph, NW96%10000m1025hPa96%
17-Apr-2024 12:00Overcast Clouds-16°C4 mph, N98%10000m1027hPa97%
17-Apr-2024 15:00Overcast Clouds-15°C7 mph, NE99%2524m1028hPa95%
17-Apr-2024 18:00Light Snow-13°C9 mph, NE100%398m1029hPa94%
17-Apr-2024 21:00Light Snow-11°C11 mph, NE100%4121m1029hPa92%
18-Apr-2024 00:00Overcast Clouds-10°C11 mph, NE100%5905m1029hPa92%
18-Apr-2024 03:00Overcast Clouds-10°C11 mph, NE100%5771m1029hPa94%
18-Apr-2024 06:00Overcast Clouds-10°C13 mph, NE100%4832m1029hPa95%
18-Apr-2024 09:00Overcast Clouds-11°C11 mph, NE100%8249m1030hPa95%
18-Apr-2024 12:00Overcast Clouds-12°C11 mph, NE100%10000m1030hPa95%
18-Apr-2024 15:00Overcast Clouds-11°C11 mph, NE100%5579m1030hPa95%
18-Apr-2024 18:00Overcast Clouds-10°C13 mph, NE100%10000m1031hPa94%
18-Apr-2024 21:00Overcast Clouds-9°C13 mph, E100%10000m1031hPa93%
19-Apr-2024 00:00Overcast Clouds-7°C16 mph, E100%10000m1030hPa93%
19-Apr-2024 03:00Overcast Clouds-7°C16 mph, E100%10000m1029hPa94%
19-Apr-2024 06:00Overcast Clouds-7°C16 mph, E100%5053m1029hPa94%
19-Apr-2024 09:00Overcast Clouds-9°C13 mph, E100%4843m1028hPa95%
19-Apr-2024 12:00Overcast Clouds-11°C11 mph, E98%5103m1028hPa97%
19-Apr-2024 15:00Overcast Clouds-12°C11 mph, E100%5700m1027hPa97%
19-Apr-2024 18:00Overcast Clouds-9°C11 mph, E100%8906m1026hPa96%
19-Apr-2024 21:00Overcast Clouds-7°C11 mph, E100%10000m1025hPa92%
20-Apr-2024 00:00Overcast Clouds-6°C9 mph, E98%10000m1024hPa91%
20-Apr-2024 03:00Broken Clouds-7°C9 mph, E77%10000m1024hPa94%
20-Apr-2024 06:00Broken Clouds-9°C7 mph, E84%10000m1023hPa95%
20-Apr-2024 09:00Overcast Clouds-11°C4 mph, E100%10000m1023hPa96%
20-Apr-2024 12:00Overcast Clouds-12°C4 mph, E100%10000m1022hPa96%
20-Apr-2024 15:00Overcast Clouds-14°C4 mph, E99%6551m1022hPa97%